Time;durP1;ratioP1;P1;durP2;ratioP2;P2;SDS_P1;SDS_P2;PMS_P1;PMS_P2;Temp;Humidity;BMP_temperature;BMP_pressure;BME280_temperature;BME280_humidity;BME280_pressure;Samples;Min_cycle;Max_cycle;Signal;HPM_P1;HPM_P2
2023/07/25 00:00:20;;;;;;;;;;;;;;;16.90;45.01;100393.69;4998991;28;1361;-53
2023/07/25 00:02:45;;;;;;;;;;;;;;;16.88;44.98;100395.91;4998889;28;1428;-52
2023/07/25 00:05:11;;;;;;;;;;;;;;;17.00;44.76;100401.06;4998963;28;1285;-49
2023/07/25 00:07:36;;;;;;;;;;;;;;;16.94;44.72;100402.19;4998791;28;1297;-53
2023/07/25 00:10:02;;;;;;;;;;;;;;;16.84;45.07;100394.78;4998742;28;1293;-55
2023/07/25 00:12:27;;;;;;;;;;;;;;;16.84;45.28;100393.97;4999202;28;1293;-53
2023/07/25 00:14:53;;;;;;;;;;;;;;;16.92;44.85;100385.97;4998642;28;1341;-53
2023/07/25 00:17:18;;;;;;;;;;;;;;;16.84;44.87;100386.56;4999047;28;2684;-53
2023/07/25 00:19:44;;;;;;;;;;;;;;;16.96;44.69;100382.66;4998863;28;1293;-53
2023/07/25 00:22:10;;;;;;;;;;;;;;;16.94;44.70;100382.94;4998659;28;1392;-53
2023/07/25 00:24:36;;;;;;;;;;;;;;;16.94;44.94;100380.19;4998561;28;1257;-53
2023/07/25 00:27:01;;;;;;;;;;;;;;;16.88;44.79;100373.09;4998281;28;1289;-54
2023/07/25 00:29:27;;;;;;;;;;;;;;;16.91;44.56;100370.63;4998585;28;1333;-53
2023/07/25 00:31:52;;;;;;;;;;;;;;;16.91;44.66;100364.31;5013262;28;1976;-54
2023/07/25 00:34:18;;;;;;;;;;;;;;;16.90;44.80;100359.91;4998681;28;1329;-54
2023/07/25 00:36:43;;;;;;;;;;;;;;;16.92;44.75;100358.50;4997636;28;1479;-53
2023/07/25 00:39:10;;;;;;;;;;;;;;;16.80;44.73;100358.03;4998550;28;1306;-53
2023/07/25 00:41:36;;;;;;;;;;;;;;;16.89;44.62;100352.78;4999030;28;1004;-53
2023/07/25 00:44:02;;;;;;;;;;;;;;;16.83;44.75;100356.63;4999051;28;1147;-54
2023/07/25 00:46:27;;;;;;;;;;;;;;;16.90;44.67;100358.00;4997518;28;2548;-52
2023/07/25 00:48:53;;;;;;;;;;;;;;;16.88;44.83;100356.59;4998728;28;1033;-53
2023/07/25 00:51:18;;;;;;;;;;;;;;;17.74;45.28;100364.38;4980825;28;1914;-53
2023/07/25 00:53:44;;;;;;;;;;;;;;;17.33;46.41;100359.31;4998651;28;1108;-54
2023/07/25 00:56:09;;;;;;;;;;;;;;;17.14;45.93;100356.44;4998936;28;1079;-53
2023/07/25 00:58:34;;;;;;;;;;;;;;;17.13;45.66;100354.81;4998227;28;992;-54
2023/07/25 01:01:06;;;;;;;;;;;;;;;17.06;45.46;100361.44;4980921;28;1152;-56
2023/07/25 01:03:32;;;;;;;;;;;;;;;17.06;45.37;100357.88;4996856;28;1246;-54
2023/07/25 01:05:58;;;;;;;;;;;;;;;17.10;44.91;100351.50;4998172;28;1048;-54
2023/07/25 01:08:24;;;;;;;;;;;;;;;16.98;45.12;100355.75;4997258;28;1024;-53
2023/07/25 01:10:49;;;;;;;;;;;;;;;16.97;44.94;100359.59;4998145;28;1906;-53
2023/07/25 01:13:15;;;;;;;;;;;;;;;16.93;45.01;100357.41;4997212;28;1039;-54
2023/07/25 01:15:40;;;;;;;;;;;;;;;16.97;44.86;100351.34;4997267;28;2328;-53
2023/07/25 01:18:06;;;;;;;;;;;;;;;16.89;45.16;100355.53;4997079;28;1754;-54
2023/07/25 01:20:33;;;;;;;;;;;;;;;16.96;44.66;100358.78;4998473;28;1159;-55
2023/07/25 01:22:59;;;;;;;;;;;;;;;16.95;44.67;100364.56;4998202;28;1075;-54
2023/07/25 01:25:24;;;;;;;;;;;;;;;16.90;44.81;100366.25;4996539;28;1012;-55
2023/07/25 01:27:50;;;;;;;;;;;;;;;16.96;44.65;100349.69;4996396;28;1043;-54
2023/07/25 01:30:15;;;;;;;;;;;;;;;16.91;44.73;100358.81;4997467;28;1902;-53
2023/07/25 01:32:41;;;;;;;;;;;;;;;16.89;44.75;100361.03;4998043;28;1064;-54
2023/07/25 01:35:07;;;;;;;;;;;;;;;16.88;44.76;100370.34;4996723;28;1306;-53
2023/07/25 01:37:32;;;;;;;;;;;;;;;16.94;44.59;100366.47;4997883;28;1127;-55
2023/07/25 01:39:58;;;;;;;;;;;;;;;16.98;44.55;100367.53;4995993;28;1076;-55
2023/07/25 01:42:23;;;;;;;;;;;;;;;16.95;44.60;100370.88;4997759;28;1104;-53
2023/07/25 01:44:49;;;;;;;;;;;;;;;17.67;45.67;100367.50;4997670;28;1154;-54
2023/07/25 01:47:14;;;;;;;;;;;;;;;17.21;46.45;100356.94;4997332;28;2618;-56
2023/07/25 01:49:40;;;;;;;;;;;;;;;17.16;46.06;100371.53;4997537;28;1012;-54
2023/07/25 01:52:05;;;;;;;;;;;;;;;17.06;45.82;100372.44;4997211;28;1914;-53
2023/07/25 01:54:31;;;;;;;;;;;;;;;17.13;45.30;100374.03;4996381;28;1171;-56
2023/07/25 01:56:56;;;;;;;;;;;;;;;17.06;45.23;100377.09;4997523;28;1100;-51
2023/07/25 01:59:22;;;;;;;;;;;;;;;17.04;44.97;100380.16;4996129;28;1292;-53
2023/07/25 02:01:48;;;;;;;;;;;;;;;17.00;44.97;100379.06;4996157;28;1570;-53
2023/07/25 02:04:13;;;;;;;;;;;;;;;16.98;44.98;100384.03;4997170;28;1301;-51
2023/07/25 02:06:39;;;;;;;;;;;;;;;17.02;44.62;100382.34;4995776;28;1900;-53
2023/07/25 02:09:04;;;;;;;;;;;;;;;16.98;44.65;100373.03;4996710;28;1071;-52
2023/07/25 02:11:30;;;;;;;;;;;;;;;16.99;44.84;100380.19;4997213;28;1917;-52
2023/07/25 02:13:55;;;;;;;;;;;;;;;16.92;44.59;100374.19;4995536;28;1190;-54
2023/07/25 02:16:21;;;;;;;;;;;;;;;16.87;44.50;100375.03;4996569;28;2294;-52
2023/07/25 02:18:46;;;;;;;;;;;;;;;16.91;44.70;100373.38;4995524;28;1944;-54
2023/07/25 02:21:12;;;;;;;;;;;;;;;16.86;44.65;100369.81;4995919;28;1289;-53
2023/07/25 02:23:37;;;;;;;;;;;;;;;16.97;44.44;100378.81;4995378;28;2184;-56
2023/07/25 02:26:03;;;;;;;;;;;;;;;16.90;44.54;100384.63;4995858;28;1312;-54
2023/07/25 02:28:29;;;;;;;;;;;;;;;16.89;44.68;100372.81;4995384;28;1264;-52
2023/07/25 02:30:54;;;;;;;;;;;;;;;16.87;44.84;100385.16;4996865;28;1906;-53
2023/07/25 02:33:20;;;;;;;;;;;;;;;16.88;44.53;100384.06;4996478;28;1214;-53
2023/07/25 02:35:45;;;;;;;;;;;;;;;16.89;44.33;100394.00;4996849;28;1126;-52
2023/07/25 02:38:11;;;;;;;;;;;;;;;16.83;44.70;100387.69;4996762;28;1048;-52
2023/07/25 02:40:36;;;;;;;;;;;;;;;16.81;44.73;100387.13;4995351;28;1445;-52
2023/07/25 02:43:02;;;;;;;;;;;;;;;16.86;44.51;100383.53;4996586;28;1028;-49
2023/07/25 02:45:28;;;;;;;;;;;;;;;16.87;44.43;100368.69;4996633;28;2253;-52
2023/07/25 02:47:53;;;;;;;;;;;;;;;16.80;44.51;100373.69;4996559;28;1179;-49
2023/07/25 02:50:20;;;;;;;;;;;;;;;16.86;44.58;100367.06;4996231;28;1906;-51
2023/07/25 02:52:46;;;;;;;;;;;;;;;16.80;44.47;100362.69;4995003;28;1396;-53
2023/07/25 02:55:11;;;;;;;;;;;;;;;16.80;44.56;100357.22;4996632;28;1088;-56
2023/07/25 02:57:36;;;;;;;;;;;;;;;16.80;44.69;100362.69;4996171;28;1064;-56
2023/07/25 03:00:02;;;;;;;;;;;;;;;16.83;44.68;100356.63;4995857;28;1027;-54
2023/07/25 03:02:28;;;;;;;;;;;;;;;16.76;44.63;100355.03;4996381;28;1139;-54
2023/07/25 03:04:54;;;;;;;;;;;;;;;16.89;44.43;100350.06;4996130;28;1103;-55
2023/07/25 03:07:20;;;;;;;;;;;;;;;16.80;44.72;100357.22;4994637;28;1398;-53
2023/07/25 03:09:45;;;;;;;;;;;;;;;16.87;44.38;100352.22;4996215;28;1532;-53
2023/07/25 03:12:11;;;;;;;;;;;;;;;16.76;44.51;100359.72;4996014;28;1977;-54
2023/07/25 03:14:36;;;;;;;;;;;;;;;16.83;44.39;100356.63;4996434;28;1013;-54
2023/07/25 03:17:02;;;;;;;;;;;;;;;16.86;44.15;100367.06;4995328;28;1757;-50
2023/07/25 03:19:27;;;;;;;;;;;;;;;16.83;44.50;100357.47;4975177;28;1391;-51
2023/07/25 03:21:53;;;;;;;;;;;;;;;16.82;44.30;100360.50;4994158;28;1084;-46
2023/07/25 03:24:18;;;;;;;;;;;;;;;16.82;44.38;100363.25;4996352;28;877;-50
2023/07/25 03:26:43;;;;;;;;;;;;;;;16.77;44.83;100364.94;4996328;28;1107;-48
2023/07/25 03:29:09;;;;;;;;;;;;;;;16.73;44.70;100358.38;4994588;28;1112;-50
2023/07/25 03:31:34;;;;;;;;;;;;;;;16.80;44.60;100357.22;4995001;28;1977;-50
2023/07/25 03:34:00;;;;;;;;;;;;;;;16.79;44.35;100344.56;4996146;28;1350;-46
2023/07/25 03:36:26;;;;;;;;;;;;;;;16.77;44.70;100358.59;4994967;28;1207;-48
2023/07/25 03:38:51;;;;;;;;;;;;;;;16.79;44.76;100350.06;4994558;28;2026;-49
2023/07/25 03:41:17;;;;;;;;;;;;;;;16.65;44.75;100356.22;4995849;28;1060;-49
2023/07/25 03:43:42;;;;;;;;;;;;;;;16.77;44.55;100361.34;4995096;28;1025;-46
2023/07/25 03:46:08;;;;;;;;;;;;;;;16.75;44.63;100366.31;4994639;28;1911;-50
2023/07/25 03:48:33;;;;;;;;;;;;;;;16.72;44.80;100362.22;5011002;28;1248;-45
2023/07/25 03:50:59;;;;;;;;;;;;;;;16.79;44.48;100369.28;4995939;28;1989;-48
2023/07/25 03:53:24;;;;;;;;;;;;;;;16.72;44.65;100377.88;4994856;28;1278;-49
2023/07/25 03:55:50;;;;;;;;;;;;;;;16.79;44.53;100381.13;5018625;28;1117;-45
2023/07/25 03:58:15;;;;;;;;;;;;;;;16.80;44.58;100382.72;5000868;28;1206;-47
2023/07/25 04:00:41;;;;;;;;;;;;;;;16.76;44.81;100385.25;4995242;28;961;-50
2023/07/25 04:03:06;;;;;;;;;;;;;;;16.92;45.80;100379.69;4993426;28;1094;-47
2023/07/25 04:05:32;;;;;;;;;;;;;;;16.96;47.75;100383.50;4993871;28;977;-47
2023/07/25 04:07:57;;;;;;;;;;;;;;;17.07;49.06;100387.00;4993638;28;1183;-50
2023/07/25 04:10:23;;;;;;;;;;;;;;;17.03;48.46;100378.50;4995528;28;1906;-48
2023/07/25 04:12:49;;;;;;;;;;;;;;;16.93;47.87;100368.41;5005163;28;1276;-44
2023/07/25 04:15:14;;;;;;;;;;;;;;;17.02;47.33;100376.03;4998804;28;1866;-46
2023/07/25 04:17:40;;;;;;;;;;;;;;;16.93;46.99;100370.34;4998882;28;1012;-46
2023/07/25 04:20:05;;;;;;;;;;;;;;;16.99;46.56;100382.13;4998168;28;1144;-46
2023/07/25 04:22:31;;;;;;;;;;;;;;;17.05;45.97;100376.28;4999329;28;1108;-47
2023/07/25 04:24:56;;;;;;;;;;;;;;;16.90;46.51;100365.41;4999201;28;1025;-49
2023/07/25 04:27:22;;;;;;;;;;;;;;;16.88;46.09;100375.84;4999511;28;1268;-44
2023/07/25 04:29:47;;;;;;;;;;;;;;;16.96;45.90;100357.94;4997764;28;1413;-47
2023/07/25 04:32:13;;;;;;;;;;;;;;;16.96;45.94;100358.78;4994454;28;1987;-48
2023/07/25 04:34:39;;;;;;;;;;;;;;;16.89;45.99;100370.09;5007044;28;1305;-49
2023/07/25 04:37:04;;;;;;;;;;;;;;;16.90;45.96;100368.16;4998947;28;1052;-46
2023/07/25 04:39:30;;;;;;;;;;;;;;;16.89;45.92;100363.78;4997772;28;1152;-60
2023/07/25 04:41:55;;;;;;;;;;;;;;;16.96;45.37;100371.66;5013449;28;1111;-62
2023/07/25 04:44:21;;;;;;;;;;;;;;;16.97;45.38;100376.06;5014060;28;1608;-56
2023/07/25 04:46:46;;;;;;;;;;;;;;;16.86;45.82;100362.38;4997225;28;2352;-56
2023/07/25 04:49:12;;;;;;;;;;;;;;;17.05;45.58;100358.97;4992561;28;1111;-58
2023/07/25 04:51:38;;;;;;;;;;;;;;;18.16;44.60;100373.03;4989112;28;1975;-59
2023/07/25 04:54:03;;;;;;;;;;;;;;;17.84;45.84;100360.69;5006003;28;1075;-57
2023/07/25 04:56:29;;;;;;;;;;;;;;;17.73;46.54;100369.06;4995385;28;1325;-60
2023/07/25 04:58:56;;;;;;;;;;;;;;;17.63;47.10;100369.19;4990914;28;1520;-58
2023/07/25 05:01:22;;;;;;;;;;;;;;;17.60;47.13;100367.03;4992986;28;1275;-58
2023/07/25 05:03:47;;;;;;;;;;;;;;;17.49;47.70;100366.28;4994869;28;1040;-56
2023/07/25 05:06:13;;;;;;;;;;;;;;;17.49;48.15;100352.56;4986403;28;977;-57
2023/07/25 05:08:38;;;;;;;;;;;;;;;17.42;48.18;100344.63;4995771;28;1353;-58
2023/07/25 05:11:04;;;;;;;;;;;;;;;17.44;48.50;100349.84;4992031;28;1968;-56
2023/07/25 05:13:29;;;;;;;;;;;;;;;17.36;49.06;100348.56;4998548;28;1131;-55
2023/07/25 05:15:55;;;;;;;;;;;;;;;17.36;48.97;100354.06;4997594;28;2394;-57
2023/07/25 05:18:20;;;;;;;;;;;;;;;17.30;49.50;100357.13;4994953;28;1148;-56
2023/07/25 05:20:46;;;;;;;;;;;;;;;17.31;49.70;100350.53;4994853;28;1234;-60
2023/07/25 05:23:11;;;;;;;;;;;;;;;17.29;49.68;100348.06;4997369;28;1079;-59
2023/07/25 05:25:37;;;;;;;;;;;;;;;17.21;50.19;100354.19;4998306;28;1107;-59
2023/07/25 05:28:03;;;;;;;;;;;;;;;17.17;50.36;100347.63;4998097;28;1136;-62
2023/07/25 05:30:29;;;;;;;;;;;;;;;17.19;50.49;100348.16;4997633;28;1906;-58
2023/07/25 05:32:54;;;;;;;;;;;;;;;17.20;50.54;100347.06;4997968;28;1028;-58
2023/07/25 05:35:20;;;;;;;;;;;;;;;17.22;50.72;100342.06;4998082;28;1124;-58
2023/07/25 05:37:45;;;;;;;;;;;;;;;17.20;50.78;100345.13;4997827;28;1048;-58
2023/07/25 05:40:11;;;;;;;;;;;;;;;17.14;50.80;100331.69;4997781;28;1067;-59
2023/07/25 05:42:36;;;;;;;;;;;;;;;17.10;51.34;100335.03;4997535;28;898;-52
2023/07/25 05:45:02;;;;;;;;;;;;;;;17.18;51.07;100346.50;4997294;28;2263;-56
2023/07/25 05:47:27;;;;;;;;;;;;;;;17.15;51.29;100347.09;4997037;28;1171;-55
2023/07/25 05:49:54;;;;;;;;;;;;;;;17.15;51.28;100342.41;4997387;28;1270;-55
2023/07/25 05:52:19;;;;;;;;;;;;;;;17.08;51.65;100337.25;4997264;28;1976;-58
2023/07/25 05:54:45;;;;;;;;;;;;;;;17.09;51.87;100338.88;4997360;28;893;-53
2023/07/25 05:57:10;;;;;;;;;;;;;;;17.07;51.72;100332.88;4997366;28;1159;-57
2023/07/25 05:59:36;;;;;;;;;;;;;;;17.05;51.98;100334.25;4997314;28;1298;-56
2023/07/25 06:02:03;;;;;;;;;;;;;;;17.12;52.03;100318.25;4990853;28;1313;-58
2023/07/25 06:04:29;;;;;;;;;;;;;;;17.07;51.85;100326.56;4997464;28;1020;-55
2023/07/25 06:06:54;;;;;;;;;;;;;;;17.09;52.23;100325.16;4996916;28;1108;-54
2023/07/25 06:09:20;;;;;;;;;;;;;;;17.07;52.12;100326.56;4997236;28;1071;-62
2023/07/25 06:11:46;;;;;;;;;;;;;;;17.01;52.24;100312.06;4996874;28;1914;-56
2023/07/25 06:14:11;;;;;;;;;;;;;;;17.01;52.67;100317.53;4997561;28;1057;-58
2023/07/25 06:16:37;;;;;;;;;;;;;;;16.99;52.87;100317.00;4997077;28;2231;-57
2023/07/25 06:19:02;;;;;;;;;;;;;;;17.03;52.53;100315.31;4996893;28;857;-58
2023/07/25 06:21:28;;;;;;;;;;;;;;;17.00;52.55;100309.56;4997161;28;1064;-58
2023/07/25 06:23:53;;;;;;;;;;;;;;;17.04;52.85;100310.63;4997478;28;1128;-60
2023/07/25 06:26:19;;;;;;;;;;;;;;;16.96;52.65;100298.34;4996673;28;1055;-55
2023/07/25 06:28:44;;;;;;;;;;;;;;;17.00;52.85;100299.41;4996462;28;1045;-56
2023/07/25 06:31:10;;;;;;;;;;;;;;;16.93;53.14;100291.50;4995515;28;1972;-60
2023/07/25 06:33:35;;;;;;;;;;;;;;;16.97;52.98;100291.75;4996028;28;1083;-54
2023/07/25 06:36:01;;;;;;;;;;;;;;;16.96;53.19;100295.59;4996754;28;1226;-58
2023/07/25 06:38:26;;;;;;;;;;;;;;;17.01;52.97;100281.00;4996901;28;993;-62
2023/07/25 06:40:52;;;;;;;;;;;;;;;16.97;53.02;100280.78;4996398;28;1160;-56
2023/07/25 06:43:17;;;;;;;;;;;;;;;16.88;53.46;100269.56;4996319;28;817;-60
2023/07/25 06:45:43;;;;;;;;;;;;;;;17.00;53.15;100280.19;4993796;28;2418;-63
2023/07/25 06:48:09;;;;;;;;;;;;;;;16.97;53.51;100275.28;4988295;28;1199;-63
2023/07/25 06:50:35;;;;;;;;;;;;;;;17.00;53.44;100269.22;4993322;28;1910;-64
2023/07/25 06:53:00;;;;;;;;;;;;;;;16.98;53.48;100282.41;4994810;28;1111;-58
2023/07/25 06:55:26;;;;;;;;;;;;;;;16.93;53.48;100277.78;4989820;28;1045;-60
2023/07/25 06:57:51;;;;;;;;;;;;;;;16.91;53.59;100277.25;4993077;28;1025;-59
2023/07/25 07:00:18;;;;;;;;;;;;;;;16.98;53.45;100271.41;4996298;28;1227;-63
2023/07/25 07:02:44;;;;;;;;;;;;;;;16.97;53.53;100283.53;4996419;28;993;-57
2023/07/25 07:05:09;;;;;;;;;;;;;;;16.96;53.41;100273.63;4989903;28;1217;-61
2023/07/25 07:07:35;;;;;;;;;;;;;;;16.96;53.76;100273.63;4995833;28;865;-61
2023/07/25 07:10:00;;;;;;;;;;;;;;;16.92;53.72;100278.06;4996275;28;1105;-58
2023/07/25 07:12:26;;;;;;;;;;;;;;;16.97;53.55;100268.94;4995799;28;1911;-60
2023/07/25 07:14:51;;;;;;;;;;;;;;;16.98;53.64;100265.91;4996458;28;1144;-58
2023/07/25 07:17:17;;;;;;;;;;;;;;;16.99;53.51;100262.06;4996393;28;1798;-61
2023/07/25 07:19:42;;;;;;;;;;;;;;;16.98;53.74;100274.16;4996247;28;861;-63
2023/07/25 07:22:08;;;;;;;;;;;;;;;16.92;53.96;100272.56;4995797;28;1036;-59
2023/07/25 07:24:33;;;;;;;;;;;;;;;16.97;53.69;100261.56;4996310;28;964;-59
2023/07/25 07:26:59;;;;;;;;;;;;;;;16.96;53.74;100268.16;4988880;28;1032;-58
2023/07/25 07:29:24;;;;;;;;;;;;;;;17.00;53.78;100260.97;4995315;28;1338;-61
2023/07/25 07:31:50;;;;;;;;;;;;;;;17.01;53.78;100270.00;4995625;28;1906;-60
2023/07/25 07:34:16;;;;;;;;;;;;;;;17.02;53.72;100277.16;4996152;28;1080;-58
2023/07/25 07:36:42;;;;;;;;;;;;;;;16.97;53.95;100280.78;4996080;28;1041;-60
2023/07/25 07:39:07;;;;;;;;;;;;;;;16.97;53.74;100266.22;4996060;28;1191;-58
2023/07/25 07:41:33;;;;;;;;;;;;;;;17.01;53.98;100272.75;4994421;28;1295;-60
2023/07/25 07:43:58;;;;;;;;;;;;;;;17.04;53.95;100266.69;4995831;28;1156;-59
2023/07/25 07:46:26;;;;;;;;;;;;;;;16.97;54.08;100269.78;4998968;28;1789;-59
2023/07/25 07:48:51;;;;;;;;;;;;;;;16.98;54.19;100265.09;5000008;28;1119;-58
2023/07/25 07:51:17;;;;;;;;;;;;;;;16.99;54.18;100262.06;4999785;28;1906;-63
2023/07/25 07:53:42;;;;;;;;;;;;;;;16.98;54.04;100249.44;4999872;28;1116;-58
2023/07/25 07:56:07;;;;;;;;;;;;;;;16.95;54.06;100261.00;4999721;28;889;-57
2023/07/25 07:58:33;;;;;;;;;;;;;;;16.97;54.24;100252.47;5000106;28;1052;-52
2023/07/25 08:00:59;;;;;;;;;;;;;;;16.98;54.21;100260.41;4999679;28;1060;-57
2023/07/25 08:03:24;;;;;;;;;;;;;;;16.96;54.33;100257.16;4999706;28;1187;-56
2023/07/25 08:05:56;;;;;;;;;;;;;;;16.97;54.39;100255.22;5000054;28;1081;-55
2023/07/25 08:08:22;;;;;;;;;;;;;;;16.96;54.32;100268.16;4999145;28;1184;-52
2023/07/25 08:10:47;;;;;;;;;;;;;;;17.03;54.39;100256.81;4999146;28;1898;-59
2023/07/25 08:13:13;;;;;;;;;;;;;;;17.06;54.05;100246.06;4999439;28;1108;-56
2023/07/25 08:15:38;;;;;;;;;;;;;;;16.95;54.28;100255.50;4999412;28;1844;-59
2023/07/25 08:18:04;;;;;;;;;;;;;;;17.04;54.24;100237.31;4998957;28;1135;-60
2023/07/25 08:20:29;;;;;;;;;;;;;;;17.03;54.48;100230.16;4998992;28;1216;-60
2023/07/25 08:22:55;;;;;;;;;;;;;;;17.00;54.29;100225.25;4999278;28;997;-59
2023/07/25 08:25:20;;;;;;;;;;;;;;;17.00;54.64;100214.28;4999251;28;1162;-58
2023/07/25 08:27:46;;;;;;;;;;;;;;;17.04;54.45;100189.78;4999066;28;1214;-56
2023/07/25 08:30:11;;;;;;;;;;;;;;;17.03;54.68;100197.22;4998913;28;1210;-55
2023/07/25 08:32:37;;;;;;;;;;;;;;;17.05;54.75;100191.41;4999577;28;1914;-57
2023/07/25 08:35:03;;;;;;;;;;;;;;;17.08;54.78;100193.56;4999052;28;1103;-59
2023/07/25 08:37:29;;;;;;;;;;;;;;;17.12;54.50;100191.09;4999081;28;1082;-56
2023/07/25 08:39:54;;;;;;;;;;;;;;;17.08;54.71;100191.66;4998726;28;1123;-56
2023/07/25 08:42:20;;;;;;;;;;;;;;;17.14;54.84;100180.59;4998292;28;1182;-61
2023/07/25 08:44:45;;;;;;;;;;;;;;;17.15;54.82;100190.50;4987725;28;1399;-60
2023/07/25 08:47:12;;;;;;;;;;;;;;;17.14;55.12;100191.59;5014211;28;2634;-64
2023/07/25 08:49:38;;;;;;;;;;;;;;;17.14;55.02;100188.84;4997720;28;1071;-61
2023/07/25 08:52:03;;;;;;;;;;;;;;;17.17;55.10;100197.34;4997831;28;1964;-62
2023/07/25 08:54:29;;;;;;;;;;;;;;;17.18;55.21;100203.63;4997724;28;1011;-62
2023/07/25 08:56:55;;;;;;;;;;;;;;;17.14;55.17;100192.44;4995526;28;985;-60
2023/07/25 08:59:21;;;;;;;;;;;;;;;17.19;54.99;100183.31;4998621;28;1033;-63
2023/07/25 09:01:46;;;;;;;;;;;;;;;17.21;55.08;100189.34;4998387;28;1163;-61
2023/07/25 09:04:12;;;;;;;;;;;;;;;17.20;55.01;100190.44;4997179;28;1134;-61
2023/07/25 09:06:38;;;;;;;;;;;;;;;17.20;55.17;100207.75;4998433;28;1059;-60
2023/07/25 09:09:04;;;;;;;;;;;;;;;17.19;55.28;100203.34;4997189;28;1151;-57
2023/07/25 09:11:30;;;;;;;;;;;;;;;17.19;55.15;100183.31;4998256;28;1906;-57
2023/07/25 09:13:55;;;;;;;;;;;;;;;17.16;55.61;100186.66;4997153;28;1129;-60
2023/07/25 09:16:21;;;;;;;;;;;;;;;17.19;55.63;100183.31;4998418;28;1818;-59
2023/07/25 09:18:46;;;;;;;;;;;;;;;17.21;55.49;100181.09;4997673;28;1107;-63
2023/07/25 09:21:12;;;;;;;;;;;;;;;17.21;55.50;100175.59;4998804;28;1012;-64
2023/07/25 09:23:37;;;;;;;;;;;;;;;17.27;56.06;100169.72;4996987;28;1055;-64
2023/07/25 09:26:04;;;;;;;;;;;;;;;17.46;57.06;100188.22;5000831;28;1658;-61
2023/07/25 09:28:30;;;;;;;;;;;;;;;17.57;57.68;100177.88;4992945;28;1434;-63
2023/07/25 09:30:55;;;;;;;;;;;;;;;17.56;58.32;100187.28;4994817;28;1915;-63
2023/07/25 09:33:23;;;;;;;;;;;;;;;17.75;59.14;100179.88;4997321;28;1116;-63
2023/07/25 09:35:48;;;;;;;;;;;;;;;17.59;59.85;100171.00;4996720;28;1103;-67
2023/07/25 09:38:14;;;;;;;;;;;;;;;17.68;59.19;100165.66;4991366;28;1475;-60
2023/07/25 09:40:39;;;;;;;;;;;;;;;17.93;59.07;100164.50;4995093;28;1045;-61
2023/07/25 09:43:05;;;;;;;;;;;;;;;17.95;59.22;100173.28;5009289;28;973;-61
2023/07/25 09:45:35;;;;;;;;;;;;;;;17.89;58.78;100173.63;4997352;28;2264;-58
2023/07/25 09:48:01;;;;;;;;;;;;;;;17.94;59.21;100171.63;4984957;28;970;-59
2023/07/25 09:50:26;;;;;;;;;;;;;;;17.87;59.22;100176.66;4997822;28;1906;-58
2023/07/25 09:52:52;;;;;;;;;;;;;;;17.86;58.54;100185.22;4996042;28;1168;-56
2023/07/25 09:55:18;;;;;;;;;;;;;;;17.95;58.13;100175.22;4997333;28;1025;-64
2023/07/25 09:57:44;;;;;;;;;;;;;;;17.85;57.69;100178.06;4997550;28;1104;-63
2023/07/25 10:00:10;;;;;;;;;;;;;;;17.75;57.63;100168.88;4996292;28;1080;-62
2023/07/25 10:02:35;;;;;;;;;;;;;;;17.75;57.65;100166.13;4990396;28;1285;-62
2023/07/25 10:05:01;;;;;;;;;;;;;;;17.80;57.26;100159.72;4995341;28;984;-61
2023/07/25 10:07:27;;;;;;;;;;;;;;;17.77;57.31;100155.63;4997051;28;1215;-61
2023/07/25 10:09:53;;;;;;;;;;;;;;;17.88;56.74;100148.06;4996119;28;1050;-59
2023/07/25 10:12:18;;;;;;;;;;;;;;;17.79;56.85;100141.56;4996588;28;1910;-60
2023/07/25 10:14:44;;;;;;;;;;;;;;;17.85;56.46;100147.81;4996698;28;929;-62
2023/07/25 10:17:10;;;;;;;;;;;;;;;17.77;56.70;100139.13;4996545;28;2599;-60
2023/07/25 10:19:54;;;;;;;;;;;;;;;17.77;56.70;100133.63;4996995;28;1273;-63
2023/07/25 10:22:36;;;;;;;;;;;;;;;17.79;56.63;100117.66;4997382;28;1111;-62
2023/07/25 10:25:01;;;;;;;;;;;;;;;17.76;56.51;100131.97;4996473;28;1099;-58
2023/07/25 10:27:27;;;;;;;;;;;;;;;17.72;56.56;100108.94;4993042;28;1154;-59
2023/07/25 10:29:53;;;;;;;;;;;;;;;17.80;56.83;100110.22;4992628;28;1378;-63
2023/07/25 10:32:22;;;;;;;;;;;;;;;17.83;56.76;100119.81;4995765;28;1977;-63
2023/07/25 10:35:00;;;;;;;;;;;;;;;17.87;56.45;100118.09;4986895;28;1285;-62
2023/07/25 10:37:36;;;;;;;;;;;;;;;17.74;56.76;100111.41;4987384;28;1251;-62
2023/07/25 10:40:11;;;;;;;;;;;;;;;17.79;56.49;100117.66;4991931;28;1076;-61
2023/07/25 10:42:43;;;;;;;;;;;;;;;17.72;56.69;100130.13;4995216;28;2612;-56
2023/07/25 10:45:21;;;;;;;;;;;;;;;17.68;56.66;100129.91;4991791;28;997;-60
2023/07/25 10:47:48;;;;;;;;;;;;;;;17.69;56.60;100125.25;4996170;28;1278;-62
2023/07/25 10:50:18;;;;;;;;;;;;;;;17.66;56.62;100121.16;4996663;28;1104;-64
2023/07/25 10:52:44;;;;;;;;;;;;;;;17.70;56.38;100132.38;4996994;28;1985;-60
2023/07/25 10:55:10;;;;;;;;;;;;;;;17.76;56.24;100120.19;4997059;28;1159;-63
2023/07/25 10:57:36;;;;;;;;;;;;;;;17.68;56.48;100124.41;5005512;28;1336;-63
2023/07/25 11:00:10;;;;;;;;;;;;;;;17.72;56.50;100117.19;5000828;28;1081;-57
2023/07/25 11:02:39;;;;;;;;;;;;;;;17.66;56.44;100115.66;5006241;28;1497;-59
2023/07/25 11:05:14;;;;;;;;;;;;;;;17.71;56.35;100110.09;4998213;28;1047;-56
2023/07/25 11:07:39;;;;;;;;;;;;;;;17.73;56.20;100099.59;5009810;28;1118;-56
2023/07/25 11:10:05;;;;;;;;;;;;;;;17.68;56.61;100102.41;4996722;28;1233;-56
2023/07/25 11:12:31;;;;;;;;;;;;;;;17.73;56.35;100088.59;4996891;28;1914;-58
2023/07/25 11:14:57;;;;;;;;;;;;;;;17.71;56.38;100085.34;4996785;28;1100;-59
2023/07/25 11:17:26;;;;;;;;;;;;;;;17.68;56.38;100087.84;4995380;28;1044;-59
2023/07/25 11:19:52;;;;;;;;;;;;;;;17.70;56.37;100083.69;5000307;28;1381;-56
2023/07/25 11:22:17;;;;;;;;;;;;;;;17.74;56.41;100078.41;5003005;28;1376;-60
2023/07/25 11:24:43;;;;;;;;;;;;;;;17.64;56.67;100082.13;5003407;28;1206;-62
2023/07/25 11:27:09;;;;;;;;;;;;;;;17.63;56.49;100072.25;5003100;28;1193;-62
2023/07/25 11:29:34;;;;;;;;;;;;;;;17.73;56.39;100072.09;5001847;28;1176;-61
2023/07/25 11:32:00;;;;;;;;;;;;;;;17.62;56.51;100073.38;5002653;28;1913;-60
2023/07/25 11:34:25;;;;;;;;;;;;;;;17.62;56.52;100070.63;5003152;28;1107;-62
2023/07/25 11:36:51;;;;;;;;;;;;;;;17.63;56.54;100072.25;5002587;28;1072;-57
2023/07/25 11:39:17;;;;;;;;;;;;;;;17.72;56.23;100069.66;5003004;28;1278;-60
2023/07/25 11:41:43;;;;;;;;;;;;;;;17.70;56.27;100077.38;5003018;28;1059;-57
2023/07/25 11:44:10;;;;;;;;;;;;;;;17.71;56.15;100063.34;5002583;28;1215;-60
2023/07/25 11:46:39;;;;;;;;;;;;;;;17.66;56.28;100071.66;5003379;28;1345;-58
2023/07/25 11:49:04;;;;;;;;;;;;;;;17.64;56.41;100068.38;5004810;28;1194;-61
2023/07/25 11:51:30;;;;;;;;;;;;;;;17.60;56.53;100054.41;5010487;28;1987;-60
2023/07/25 11:53:56;;;;;;;;;;;;;;;17.77;55.90;100069.56;4998495;28;1403;-58
2023/07/25 11:56:21;;;;;;;;;;;;;;;17.61;56.21;100053.31;5002807;28;1199;-60
2023/07/25 11:58:50;;;;;;;;;;;;;;;17.62;56.62;100059.63;5002574;28;1096;-60
2023/07/25 12:01:18;;;;;;;;;;;;;;;17.71;56.31;100059.75;5002853;28;1155;-63
2023/07/25 12:03:50;;;;;;;;;;;;;;;17.70;56.01;100049.91;5002383;28;1367;-61
2023/07/25 12:06:16;;;;;;;;;;;;;;;17.68;56.25;100055.66;4999146;28;1608;-60
2023/07/25 12:08:42;;;;;;;;;;;;;;;17.62;56.34;100054.94;5001964;28;1396;-61
2023/07/25 12:11:09;;;;;;;;;;;;;;;17.71;56.30;100052.34;5002403;28;1910;-61
2023/07/25 12:13:47;;;;;;;;;;;;;;;17.65;56.49;100053.53;5002468;28;1055;-60
2023/07/25 12:16:28;;;;;;;;;;;;;;;17.72;56.65;100059.44;5003063;28;1123;-59
2023/07/25 12:18:57;;;;;;;;;;;;;;;17.68;56.58;100049.34;5002761;28;1104;-60
2023/07/25 12:21:23;;;;;;;;;;;;;;;17.72;56.68;100051.19;5002223;28;904;-59
2023/07/25 12:23:49;;;;;;;;;;;;;;;17.90;57.50;100044.03;5002778;28;1226;-60
2023/07/25 12:26:20;;;;;;;;;;;;;;;17.94;57.59;100041.56;5001615;28;1397;-60
2023/07/25 12:28:45;;;;;;;;;;;;;;;17.81;57.45;100039.53;5002304;28;1071;-60
2023/07/25 12:31:11;;;;;;;;;;;;;;;17.81;57.18;100034.88;5001487;28;1905;-60
2023/07/25 12:33:37;;;;;;;;;;;;;;;17.81;57.00;100034.03;4999325;28;1097;-61
2023/07/25 12:36:03;;;;;;;;;;;;;;;17.73;57.00;100033.59;4999962;28;1163;-60
2023/07/25 12:38:28;;;;;;;;;;;;;;;17.79;56.64;100031.56;4999448;28;1175;-61
2023/07/25 12:40:54;;;;;;;;;;;;;;;17.79;56.84;100029.66;4999472;28;1127;-60